PAIM

Details ICAO PAIM (UTO)
Name INDIAN MOUNTAIN LRRS
Region USA (Alaska)
Timezone America/Anchorage (UTC-9.0)
Plans Departing 1
Arriving 0
Stats Elevation 1,220 ft / 372 m (AMSL)
Location 65.992638° -153.703890°
Runways 1
Magnetic Variation 15.448° E
Sunrise 2017-12-17 20:47:12 UTC / 2017-12-17 11:47:12 Local
Sunset 2017-12-17 23:37:48 UTC / 2017-12-17 14:37:48 Local
Advertisement - Login to hide

Runways

ID Width Length Bearing (true) Bearing (mag) Surface Threshold Offset Overrun Length
06 120 ft / 37 m 4,073 ft / 1,241 m 82.83° 67.38° Gravel 0 ft / 0 m 0 ft / 0 m
24 120 ft / 37 m 4,073 ft / 1,241 m 262.85° 247.40° Gravel 0 ft / 0 m 0 ft / 0 m

Map

Weather


0- 5 10 15 20 25 30 35+ Temperature / ° C

Clouds and Precipitation
Forecast for 2017-12-18 00:00 UTC. Updated 2 minutes ago

Ground ~20,000 ft ~40,000 ft Winds

METAR

PAIM 172306Z AUTO 00000KT 2 1/2SM -SN OVC043 M09/M10 A2957

TAF

Not found

Frequencies

Unicom 126.20 MHz CTAF
Warning: Do not use this data for real-world aviation or navigation. No guarantee of current accuracy is given.